• Join FlightAware (Why Join?)
  • Login
  • US Flag 
03:08PM EST


 

Airport Tracker/Info


-or-


 

Live Flight TrackerFlight Track Log ✈ SWA279 ✈ 24-Apr-2013 ✈ KHOU - KLAX

Flight Track Log - Related Links

Times and Time Zones

All times are in EDT time to prevent confusion due to time zone crossing. See the SWA279 flight status page for this flight to view local times or setup timezone preferences in your user account.

Time Position Orientation Groundspeed Altitude Reporting Facility
EDT Latitude Longitude Course Direction KTS MPH feet Rate Location/Type
03:20PM 29.6544 -95.2892 305° West 150 173 800  Level Houston Center
03:21PM 29.6667 -95.3094 305° West 171 197 1,500 1,200 Climbing Houston Center
03:22PM 29.6950 -95.3475 311° West 205 236 2,500 1,980 Climbing Houston Center
03:23PM 29.7436 -95.4108 311° West 251 289 5,300 3,540 Climbing Houston Center
03:24PM 29.7925 -95.5133 299° West 276 318 10,400 2,880 Climbing Houston Center
03:25PM 29.8106 -95.5953 284° West 309 356 11,400 2,340 Climbing Houston Center
03:26PM 29.8347 -95.7078 284° West 353 406 15,000 3,240 Climbing Houston Center
03:27PM 29.8569 -95.8219 283° West 365 420 18,100 2,580 Climbing Houston Center
03:28PM 29.8817 -95.9386 284° West 375 432 20,400 2,340 Climbing Houston Center
03:29PM 29.9081 -96.0725 283° West 397 457 23,000 2,280 Climbing Houston Center
03:30PM 29.9339 -96.1978 283° West 403 464 25,200 2,160 Climbing Houston Center
03:31PM 29.9447 -96.3558 275° West 411 473 27,500 2,040 Climbing Houston Center
03:32PM 29.9519 -96.4900 274° West 421 484 29,500 1,920 Climbing Houston Center
03:33PM 29.9661 -96.6192 277° West 412 474 31,600 1,860 Climbing Houston Center
03:34PM 29.9953 -96.7461 285° West 412 474 33,400 1,740 Climbing Houston Center
03:35PM 30.0192 -96.8697 283° West 402 463 35,200 1,800 Climbing Houston Center
03:36PM 30.0492 -97.0153 283° West 392 451 37,200 1,320 Climbing Houston Center
03:37PM 30.0739 -97.1317 284° West 379 436 38,000 360 Climbing Houston Center
03:38PM 30.0983 -97.2497 283° West 377 434 38,000  Level Houston Center
03:39PM 30.1225 -97.3675 283° West 374 430 38,000  Level Houston Center
03:40PM 30.1464 -97.4867 283° West 375 432 38,000  Level Houston Center
03:41PM 30.1750 -97.6247 284° West 375 432 38,000  Level Houston Center
03:42PM 30.1981 -97.7414 283° West 371 427 38,000  Level Houston Center
03:43PM 30.2214 -97.8592 283° West 370 426 38,000  Level Houston Center
03:44PM 30.2458 -97.9803 283° West 371 427 38,000  Level Houston Center
03:46PM 30.2706 -98.1047 283° West 371 427 38,000  Level Houston Center
03:47PM 30.2931 -98.2217 283° West 373 429 38,000  Level Houston Center
03:48PM 30.3147 -98.3300 283° West 372 428 38,000  Level Houston Center
03:49PM 30.3381 -98.4489 283° West 374 430 38,000  Level Houston Center
03:50PM 30.3653 -98.5883 283° West 375 432 38,000  Level Houston Center
03:51PM 30.3883 -98.7081 283° West 378 435 38,000  Level Houston Center
03:52PM 30.4117 -98.8292 283° West 381 438 38,000  Level Houston Center
03:53PM 30.4350 -98.9483 283° West 378 435 38,000  Level Houston Center
03:54PM 30.4578 -99.0683 282° West 378 435 38,000  Level Houston Center
03:55PM 30.4822 -99.1933 283° West 376 433 38,000  Level Houston Center
03:56PM 30.5050 -99.3114 283° West 377 434 38,000  Level Houston Center
03:57PM 30.5272 -99.4292 282° West 376 433 38,000  Level Houston Center
03:58PM 30.5486 -99.5475 282° West 376 433 38,000  Level Houston Center
03:59PM 30.5761 -99.6894 283° West 378 435 38,000  Level Houston Center
04:00PM 30.5972 -99.8078 282° West 378 435 38,000  Level Houston Center
04:01PM 30.6128 -99.9261 279° West 375 432 38,000  Level Houston Center
04:02PM 30.6272 -100.0461 278° West 375 432 38,000  Level Houston Center
04:03PM 30.6408 -100.1656 278° West 374 430 38,000  Level Houston Center
04:04PM 30.6589 -100.3083 278° West 376 433 38,000  Level Houston Center
04:06PM 30.6833 -100.5033 278° West 379 436 38,000  Level Albuquerque Center
04:06PM 30.6869 -100.5500 275° West 380 437 38,000  Level Houston Center
04:07PM 30.7011 -100.6711 278° West 380 437 38,000  Level Houston Center
04:08PM 30.7161 -100.7922 278° West 383 441 38,000  Level Houston Center
04:09PM 30.7311 -100.9392 277° West 386 444 38,000  Level Houston Center
04:10PM 30.7456 -101.0586 278° West 377 434 38,000  Level Houston Center
04:11PM 30.7600 -101.1772 278° West 374 430 38,000  Level Houston Center
04:12PM 30.7742 -101.2969 278° West 375 432 38,000  Level Houston Center
04:13PM 30.7872 -101.4194 277° West 380 437 38,000  Level Houston Center
04:15PM 30.8036 -101.5628 278° West 377 434 38,000  Level Houston Center
04:16PM 30.8147 -101.6681 277° West 378 435 38,000  Level Houston Center
04:16PM 30.8247 -101.7642 277° West 379 436 38,000  Level Albuquerque Center
04:17PM 30.8386 -101.8861 278° West 379 436 38,000  Level Albuquerque Center
04:18PM 30.8508 -102.0078 277° West 379 436 38,000  Level Albuquerque Center
04:19PM 30.8639 -102.1306 277° West 380 437 38,000  Level Albuquerque Center
04:20PM 30.8769 -102.2531 277° West 380 437 38,000  Level Albuquerque Center
04:21PM 30.8897 -102.3764 277° West 380 437 38,000  Level Albuquerque Center
04:22PM 30.9025 -102.4989 277° West 380 437 38,000  Level Albuquerque Center
04:23PM 30.9175 -102.6467 277° West 380 437 38,000  Level Albuquerque Center
04:24PM 30.9303 -102.7686 277° West 380 437 38,000  Level Albuquerque Center
04:25PM 30.9425 -102.8914 277° West 381 438 38,000  Level Albuquerque Center
04:27PM 30.9606 -103.0119 280° West 380 437 38,000  Level Albuquerque Center
04:28PM 30.9947 -103.1308 289° West 385 443 38,000  Level Albuquerque Center
04:29PM 31.0272 -103.2506 288° West 387 445 38,000  Level Albuquerque Center
04:30PM 31.0594 -103.3689 288° West 385 443 38,000  Level Albuquerque Center
04:31PM 31.0967 -103.5108 287° West 383 441 38,000  Level Albuquerque Center
04:32PM 31.1294 -103.6292 288° West 383 441 38,000  Level Albuquerque Center
04:33PM 31.1619 -103.7478 288° West 384 442 38,000  Level Albuquerque Center
04:34PM 31.1931 -103.8622 288° West 385 443 38,000  Level Albuquerque Center
04:35PM 31.2247 -103.9806 287° West 384 442 38,000  Level Albuquerque Center
04:36PM 31.2628 -104.1217 288° West 383 441 38,000  Level Albuquerque Center
04:37PM 31.2942 -104.2408 287° West 385 443 38,000  Level Albuquerque Center
04:38PM 31.3261 -104.3600 287° West 386 444 38,000  Level Albuquerque Center
04:39PM 31.3567 -104.4778 287° West 384 442 38,000  Level Albuquerque Center
04:40PM 31.3872 -104.5956 287° West 382 440 38,000  Level Albuquerque Center
04:41PM 31.4197 -104.7147 288° West 386 444 38,000  Level Albuquerque Center
04:42PM 31.4561 -104.8556 287° West 383 441 38,000  Level Albuquerque Center
04:43PM 31.4858 -104.9747 286° West 384 442 38,000  Level Albuquerque Center
04:44PM 31.5169 -105.0908 287° West 380 437 38,000  Level Albuquerque Center
04:45PM 31.5472 -105.2097 287° West 382 440 38,000  Level Albuquerque Center
04:46PM 31.5767 -105.3289 286° West 383 441 38,000  Level Albuquerque Center
04:47PM 31.6133 -105.4717 287° West 381 438 38,000  Level Albuquerque Center
04:48PM 31.6425 -105.5911 286° West 382 440 38,000  Level Albuquerque Center
04:49PM 31.6728 -105.7108 287° West 384 442 38,000  Level Albuquerque Center
04:50PM 31.7033 -105.8294 287° West 382 440 38,000  Level Albuquerque Center
04:51PM 31.7331 -105.9486 286° West 381 438 38,000  Level Albuquerque Center
04:52PM 31.7689 -106.0911 287° West 381 438 38,000  Level Albuquerque Center
04:53PM 31.7986 -106.2103 286° West 381 438 38,000  Level Albuquerque Center
04:54PM 31.8217 -106.3319 283° West 383 441 38,000  Level Albuquerque Center
04:55PM 31.8311 -106.4536 275° West 379 436 38,000  Level Albuquerque Center
04:56PM 31.8375 -106.5767 274° West 378 435 38,000  Level Albuquerque Center
04:58PM 31.8478 -106.7000 276° West 378 435 38,000  Level Albuquerque Center
04:59PM 31.8594 -106.8486 275° West 379 436 38,000  Level Albuquerque Center
05:00PM 31.8678 -106.9719 275° West 378 435 38,000  Level Albuquerque Center
05:01PM 31.8767 -107.0953 275° West 378 435 38,000  Level Albuquerque Center
05:02PM 31.8847 -107.2194 274° West 379 436 38,000  Level Albuquerque Center
05:03PM 31.8933 -107.3439 275° West 380 437 38,000  Level Albuquerque Center
05:04PM 31.9017 -107.4669 275° West 378 435 38,000  Level Albuquerque Center
05:05PM 31.9097 -107.5897 274° West 377 434 38,000  Level Albuquerque Center
05:06PM 31.9186 -107.7389 274° West 378 435 38,000  Level Albuquerque Center
05:07PM 31.9417 -107.8608 283° West 383 441 38,000  Level Albuquerque Center
05:08PM 31.9708 -107.9828 286° West 385 443 38,000  Level Albuquerque Center
05:09PM 31.9994 -108.1047 285° West 386 444 38,000  Level Albuquerque Center
05:10PM 32.0319 -108.2314 287° West 382 440 38,000  Level Albuquerque Center
05:11PM 32.0717 -108.3475 292° West 384 442 38,000  Level Albuquerque Center
05:12PM 32.1094 -108.4636 291° West 382 440 38,000  Level Albuquerque Center
05:13PM 32.1556 -108.6019 292° West 381 438 38,000  Level Albuquerque Center
05:14PM 32.1933 -108.7194 291° West 382 440 38,000  Level Albuquerque Center
05:15PM 32.2314 -108.8361 291° West 383 441 38,000  Level Albuquerque Center
05:16PM 32.2703 -108.9558 291° West 388 447 38,000  Level Albuquerque Center
05:17PM 32.3092 -109.0750 291° West 389 448 38,000  Level Albuquerque Center
05:18PM 32.3472 -109.1944 291° West 390 449 38,000  Level Albuquerque Center
05:19PM 32.3931 -109.3378 291° West 390 449 38,000  Level Albuquerque Center
05:20PM 32.4331 -109.4603 291° West 394 453 38,000  Level Albuquerque Center
05:21PM 32.4719 -109.5833 291° West 398 458 38,000  Level Albuquerque Center
05:22PM 32.5114 -109.7044 291° West 398 458 38,000  Level Albuquerque Center
05:23PM 32.5508 -109.8272 291° West 399 459 38,000 -60 Level Albuquerque Center
05:24PM 32.5969 -109.9722 291° West 395 455 37,900  Descending Albuquerque Center
05:25PM 32.6344 -110.0933 290° West 395 455 38,000  Climbing Albuquerque Center
05:26PM 32.6719 -110.2136 290° West 393 452 38,000  Level Albuquerque Center
05:28PM 32.7100 -110.3328 291° West 389 448 38,000  Level Albuquerque Center
05:29PM 32.7475 -110.4517 291° West 388 447 38,000  Level Albuquerque Center
05:30PM 32.7917 -110.5942 290° West 386 444 38,000  Level Albuquerque Center
05:31PM 32.8236 -110.6992 290° West 385 443 38,000  Level Albuquerque Center
05:32PM 32.8600 -110.8194 290° West 386 444 38,000  Level Albuquerque Center
05:33PM 32.9047 -110.9647 290° West 389 448 38,000  Level Albuquerque Center
05:34PM 32.9431 -111.0844 291° West 387 445 38,000  Level Albuquerque Center
05:35PM 32.9800 -111.2083 290° West 394 453 38,000  Level Albuquerque Center
05:36PM 33.0167 -111.3308 290° West 393 452 38,000  Level Albuquerque Center
05:37PM 33.0542 -111.4569 290° West 393 452 38,000  Level Albuquerque Center
05:38PM 33.0897 -111.5750 290° West 390 449 38,000  Level Albuquerque Center
05:39PM 33.1258 -111.6975 289° West 391 450 38,000  Level Albuquerque Center
05:40PM 33.1692 -111.8439 290° West 389 448 38,000  Level Albuquerque Center
05:41PM 33.2056 -111.9675 289° West 393 452 38,000  Level Albuquerque Center
05:42PM 33.2411 -112.0894 289° West 390 449 38,000  Level Albuquerque Center
05:43PM 33.2761 -112.2114 289° West 388 447 38,000  Level Albuquerque Center
05:44PM 33.3119 -112.3344 289° West 390 449 38,000  Level Albuquerque Center
05:46PM 33.3842 -112.5844 289° West 397 457 38,000  Level Albuquerque Center
05:47PM 33.4231 -112.7186 289° West 397 457 38,000  Level Albuquerque Center
05:48PM 33.4689 -112.8692 290° West 402 463 38,000  Level Albuquerque Center
05:49PM 33.5142 -112.9942 294° West 407 468 38,000  Level Albuquerque Center
05:50PM 33.5586 -113.1183 293° West 408 470 38,000  Level Albuquerque Center
05:51PM 33.6039 -113.2439 293° West 410 472 38,000  Level Albuquerque Center
05:52PM 33.6456 -113.3642 293° West 409 471 38,000  Level Albuquerque Center
05:53PM 33.6992 -113.5161 293° West 412 474 38,000  Level Albuquerque Center
05:54PM 33.7433 -113.6456 292° West 416 479 38,000  Level Albuquerque Center
05:55PM 33.7903 -113.7744 294° West 419 482 38,000  Level Albuquerque Center
05:56PM 33.8344 -113.9036 292° West 419 482 38,000  Level Albuquerque Center
05:57PM 33.8719 -114.0350 289° West 416 479 38,000  Level Albuquerque Center
05:59PM 33.8869 -114.1692 278° West 406 467 38,000  Level Albuquerque Center
06:00PM 33.9083 -114.3086 281° West 412 474 38,000  Level Albuquerque Center
06:00PM 33.9175 -114.3750 279° West 412 474 38,000  Level Los Angeles Center
06:01PM 33.9383 -114.5114 280° West 415 478 38,000  Level Los Angeles Center
06:02PM 33.9572 -114.6478 280° West 415 478 38,000  Level Los Angeles Center
06:03PM 33.9806 -114.8111 280° West 414 476 38,000  Level Los Angeles Center
06:04PM 34.0006 -114.9467 280° West 414 476 38,000  Level Los Angeles Center
06:05PM 34.0169 -115.0839 278° West 414 476 38,000  Level Los Angeles Center
06:06PM 34.0117 -115.2178 267° West 405 466 38,000  Level Los Angeles Center
06:07PM 34.0089 -115.3544 269° West 409 471 38,000 -480 Level Los Angeles Center
06:08PM 34.0064 -115.4917 269° West 411 473 37,100 -960 Descending Los Angeles Center
06:09PM 34.0014 -115.6628 268° West 426 490 36,000 -1,020 Descending Los Angeles Center
06:10PM 33.9981 -115.8086 268° West 436 502 35,000 -1,020 Descending Los Angeles Center
06:11PM 33.9936 -115.9539 268° West 437 503 34,000 -1,260 Descending Los Angeles Center
06:12PM 33.9889 -116.0953 268° West 429 494 32,400 -1,800 Descending Los Angeles Center
06:13PM 33.9856 -116.2319 268° West 416 479 30,300 -2,160 Descending Los Angeles Center
06:14PM 33.9794 -116.3878 267° West 393 452 28,000 -2,040 Descending Los Angeles Center
06:15PM 33.9750 -116.5119 268° West 377 434 26,100 -1,800 Descending Los Angeles Center
06:16PM 33.9717 -116.6289 268° West 356 410 24,300 -1,680 Descending Los Angeles Center
06:18PM 33.9669 -116.7428 267° West 344 396 22,600 -1,740 Descending Los Angeles Center
06:19PM 33.9642 -116.8586 268° West 346 398 20,800 -1,920 Descending Los Angeles Center
06:20PM 33.9581 -117.0014 267° West 356 410 18,700 -2,040 Descending Los Angeles Center
06:20PM 33.9500 -117.1000 264° West 342 394 17,100 -960 Descending Southern California TRACON
06:21PM 33.9500 -117.2000 270° West 339 390 17,000 -60 Descending Southern California TRACON
06:22PM 33.9333 -117.3167 260° West 332 382 17,000 -540 Level Southern California TRACON
06:23PM 33.9500 -117.4333 280° West 336 387 16,000 -1,140 Descending Southern California TRACON
06:24PM 33.9833 -117.5333 292° West 322 371 14,800 -1,620 Descending Southern California TRACON
06:25PM 34.0167 -117.6333 292° West 433 498 12,800 -1,980 Descending Southern California TRACON
06:26PM 34.0167 -117.7500 270° West 304 350 10,900 -1,980 Descending Southern California TRACON
06:27PM 34.0000 -117.8500 259° West 307 353 8,900 -1,800 Descending Southern California TRACON
06:28PM 34.0000 -117.9500 270° West 294 338 7,300 -1,500 Descending Southern California TRACON
06:29PM 33.9833 -118.0333 256° West 283 326 5,900 -1,380 Descending Southern California TRACON
06:30PM 33.9833 -118.1333 270° West 277 319 4,600 -1,260 Descending Southern California TRACON
06:31PM 33.9764 -118.1669 256° West 280 322 4,000 -1,320 Descending Los Angeles Center
06:32PM 33.9683 -118.2519 264° West 225 259 2,500 -1,140 Descending Los Angeles Center
06:33PM 33.9633 -118.3058 264° West 188 216 1,700 -780 Descending Los Angeles Center
06:34PM 33.9581 -118.3486 262° West 151 174 1,000 -720 Descending Los Angeles Center
06:35PM 33.9542 -118.3911 264° West 137 158 300 -720 Descending Los Angeles Center
06:37PM 33.9333 -118.4000 270° West  Level FlightAware Approximate
06:44PM 33.9425 -118.4081 270° West  Level Estimated